createdAt,value
2022-12-18T00:01:44.469Z,10.00
2022-12-18T00:04:17.345Z,10.00
2022-12-18T00:06:46.409Z,9.00
2022-12-18T00:09:15.762Z,9.75
2022-12-18T00:11:43.176Z,9.25
2022-12-18T00:14:11.052Z,9.25
2022-12-18T00:16:38.543Z,10.00
2022-12-18T00:19:06.044Z,9.00
2022-12-18T00:21:33.751Z,10.25
2022-12-18T00:24:02.552Z,9.50
2022-12-18T00:26:30.920Z,10.25
2022-12-18T00:29:01.625Z,11.25
2022-12-18T00:31:31.740Z,11.00
2022-12-18T00:33:59.645Z,9.50
2022-12-18T00:36:28.408Z,11.00
2022-12-18T00:38:55.990Z,9.25
2022-12-18T00:41:42.751Z,7.00
2022-12-18T00:44:11.459Z,8.25
2022-12-18T00:46:38.923Z,10.75
2022-12-18T00:49:06.326Z,9.00
2022-12-18T00:51:33.807Z,9.00
2022-12-18T00:54:01.208Z,7.75
2022-12-18T00:56:29.909Z,8.50
2022-12-18T00:58:57.320Z,9.50
2022-12-18T01:01:24.850Z,9.25
2022-12-18T01:03:52.471Z,10.00
2022-12-18T01:06:21.179Z,9.00
2022-12-18T01:08:48.578Z,9.00
2022-12-18T01:11:17.045Z,9.00
2022-12-18T01:13:45.774Z,7.00
2022-12-18T01:16:13.398Z,9.00
2022-12-18T01:18:40.878Z,9.00
2022-12-18T01:21:09.328Z,9.25
2022-12-18T01:23:39.045Z,9.00
2022-12-18T01:26:07.787Z,2.75
2022-12-18T01:28:36.511Z,9.00
2022-12-18T01:31:18.515Z,9.25
2022-12-18T01:33:46.194Z,8.00
2022-12-18T01:36:17.835Z,1.00
2022-12-18T01:38:45.331Z,8.00
2022-12-18T01:41:12.756Z,7.00
2022-12-18T01:43:47.944Z,7.50
2022-12-18T01:46:17.012Z,8.75
2022-12-18T01:48:44.669Z,8.50
2022-12-18T01:51:12.162Z,8.50
2022-12-18T01:53:40.086Z,7.50
2022-12-18T01:56:08.352Z,9.25
2022-12-18T01:58:39.342Z,9.00
2022-12-18T02:01:07.063Z,7.00
2022-12-18T02:03:36.645Z,8.00
2022-12-18T02:06:08.734Z,9.00
2022-12-18T02:08:39.724Z,8.00
2022-12-18T02:11:08.531Z,8.50
2022-12-18T02:13:40.677Z,7.25
2022-12-18T02:16:10.632Z,9.00
2022-12-18T02:18:43.038Z,8.00
2022-12-18T02:21:14.598Z,7.00
2022-12-18T02:23:49.120Z,7.50
2022-12-18T02:26:20.444Z,7.25
2022-12-18T02:28:53.613Z,7.00
2022-12-18T02:31:23.038Z,7.25
2022-12-18T02:33:50.502Z,8.00
2022-12-18T02:36:17.904Z,6.75
2022-12-18T02:38:45.959Z,8.00
2022-12-18T02:41:15.347Z,9.00
2022-12-18T02:43:47.798Z,8.00
2022-12-18T02:46:27.220Z,7.25
2022-12-18T02:48:55.801Z,5.00
2022-12-18T02:51:25.770Z,7.50
2022-12-18T02:53:59.980Z,7.00
2022-12-18T02:56:29.079Z,8.25
2022-12-18T02:58:58.228Z,8.00
2022-12-18T03:01:43.095Z,7.00
2022-12-18T03:04:12.164Z,7.00
2022-12-18T03:06:41.515Z,6.25
2022-12-18T03:09:10.230Z,6.50
2022-12-18T03:11:57.084Z,4.00
2022-12-18T03:14:25.809Z,6.75
2022-12-18T03:16:55.324Z,6.00
2022-12-18T03:19:24.134Z,6.00
2022-12-18T03:21:54.065Z,6.75
2022-12-18T03:24:21.740Z,6.00
2022-12-18T03:26:51.020Z,4.75
2022-12-18T03:29:20.486Z,6.00
2022-12-18T03:31:51.487Z,6.00
2022-12-18T03:34:21.560Z,6.00
2022-12-18T03:36:49.117Z,6.00
2022-12-18T03:39:16.562Z,5.25
2022-12-18T03:41:53.345Z,5.00
2022-12-18T03:44:36.773Z,6.00
2022-12-18T03:47:08.049Z,5.25
2022-12-18T03:49:37.122Z,5.00
2022-12-18T03:52:07.587Z,6.00
2022-12-18T03:54:35.045Z,4.00
2022-12-18T03:57:12.474Z,5.00
2022-12-18T03:59:39.944Z,6.00
2022-12-18T04:02:10.220Z,4.00
2022-12-18T04:04:39.099Z,5.00
2022-12-18T04:07:06.573Z,5.00
2022-12-18T04:09:36.025Z,0.00
2022-12-18T04:12:04.685Z,4.00
2022-12-18T04:14:36.452Z,1.00
2022-12-18T04:17:05.120Z,5.75
2022-12-18T04:19:35.308Z,5.00
2022-12-18T04:22:03.988Z,5.00
2022-12-18T04:24:37.188Z,4.50
2022-12-18T04:27:12.530Z,4.75
2022-12-18T04:29:44.344Z,5.00
2022-12-18T04:32:11.791Z,4.00
2022-12-18T04:34:43.589Z,5.25
2022-12-18T04:37:12.169Z,5.00
2022-12-18T04:39:40.104Z,4.75
2022-12-18T04:42:13.976Z,4.00
2022-12-18T04:44:41.371Z,3.25
2022-12-18T04:47:09.287Z,5.00
2022-12-18T04:49:36.714Z,5.00
2022-12-18T04:52:05.667Z,4.75
2022-12-18T04:54:33.070Z,4.00
2022-12-18T04:57:00.457Z,4.00
2022-12-18T04:59:27.878Z,4.75
2022-12-18T05:01:55.348Z,4.00
2022-12-18T05:04:22.824Z,4.00
2022-12-18T05:06:50.252Z,5.00
2022-12-18T05:09:19.027Z,5.00
2022-12-18T05:11:47.563Z,4.00
2022-12-18T05:14:14.971Z,4.00
2022-12-18T05:16:42.363Z,4.00
2022-12-18T05:19:09.782Z,5.00
2022-12-18T05:21:37.257Z,5.00
2022-12-18T05:24:05.043Z,4.50
2022-12-18T05:26:33.719Z,3.00
2022-12-18T05:29:01.136Z,4.00
2022-12-18T05:31:28.709Z,3.50
2022-12-18T05:33:56.189Z,4.00
2022-12-18T05:36:23.582Z,3.50
2022-12-18T05:38:50.983Z,3.00
2022-12-18T05:41:18.384Z,5.00
2022-12-18T05:43:47.111Z,4.00
2022-12-18T05:46:16.189Z,4.50
2022-12-18T05:48:43.762Z,4.00
2022-12-18T05:51:12.566Z,2.75
2022-12-18T05:53:40.598Z,3.25
2022-12-18T05:56:09.395Z,4.75
2022-12-18T05:58:36.819Z,4.00
2022-12-18T06:01:10.302Z,3.00
2022-12-18T06:03:37.805Z,3.25
2022-12-18T06:06:05.493Z,4.00
2022-12-18T06:08:32.885Z,3.00
2022-12-18T06:11:00.288Z,3.50
2022-12-18T06:13:27.695Z,3.00
2022-12-18T06:15:55.148Z,4.00
2022-12-18T06:18:23.891Z,3.00
2022-12-18T06:20:56.692Z,3.25
2022-12-18T06:23:24.150Z,4.75
2022-12-18T06:25:51.555Z,3.00
2022-12-18T06:28:19.074Z,3.00
2022-12-18T06:30:46.528Z,3.50
2022-12-18T06:33:13.949Z,3.75
2022-12-18T06:35:42.683Z,3.00
2022-12-18T06:38:10.084Z,2.00
2022-12-18T06:40:38.810Z,4.00
2022-12-18T06:43:06.231Z,4.00
2022-12-18T06:45:33.700Z,3.25
2022-12-18T06:48:01.164Z,3.00
2022-12-18T06:50:28.561Z,3.00
2022-12-18T06:52:57.252Z,4.00
2022-12-18T06:55:24.735Z,3.00
2022-12-18T06:57:52.175Z,4.00
2022-12-18T07:00:19.974Z,3.00
2022-12-18T07:02:47.468Z,4.00
2022-12-18T07:05:14.963Z,4.00
2022-12-18T07:07:42.365Z,4.00
2022-12-18T07:10:11.292Z,3.75
2022-12-18T07:12:38.692Z,3.00
2022-12-18T07:15:07.269Z,1.25
2022-12-18T07:17:34.731Z,3.25
2022-12-18T07:20:02.214Z,4.00
2022-12-18T07:22:29.606Z,3.75
2022-12-18T07:24:57.147Z,3.50
2022-12-18T07:27:25.854Z,3.50
2022-12-18T07:29:53.582Z,3.50
2022-12-18T07:32:21.005Z,3.00
2022-12-18T07:34:48.424Z,4.00
2022-12-18T07:37:15.890Z,4.00
2022-12-18T07:39:43.293Z,3.00
2022-12-18T07:42:28.485Z,4.50
2022-12-18T07:44:57.280Z,4.00
2022-12-18T07:47:25.703Z,3.00
2022-12-18T07:49:53.425Z,3.00
2022-12-18T07:52:25.781Z,3.00
2022-12-18T07:54:53.702Z,3.00
2022-12-18T07:57:48.797Z,2.00
2022-12-18T08:00:11.147Z,3.25
2022-12-18T08:02:42.166Z,3.00
2022-12-18T08:05:10.431Z,3.00
2022-12-18T08:07:37.813Z,4.00
2022-12-18T08:10:05.838Z,3.75
2022-12-18T08:12:33.699Z,4.00
2022-12-18T08:15:01.111Z,3.75
2022-12-18T08:17:29.812Z,3.00
2022-12-18T08:19:57.207Z,2.25
2022-12-18T08:22:24.630Z,4.00
2022-12-18T08:24:52.039Z,2.75
2022-12-18T08:27:34.906Z,3.00
2022-12-18T08:30:02.408Z,3.00
2022-12-18T08:32:31.091Z,3.00
2022-12-18T08:34:58.505Z,3.00
2022-12-18T08:37:25.921Z,3.00
2022-12-18T08:39:53.325Z,3.00
2022-12-18T08:42:38.353Z,3.00
2022-12-18T08:45:06.408Z,3.50
2022-12-18T08:47:35.087Z,3.00
2022-12-18T08:50:02.865Z,2.00
2022-12-18T08:52:30.297Z,2.75
2022-12-18T08:54:57.703Z,4.00
2022-12-18T08:57:25.121Z,3.25
2022-12-18T08:59:52.530Z,3.50
2022-12-18T09:02:20.122Z,3.00
2022-12-18T09:04:55.472Z,3.00
2022-12-18T09:07:24.661Z,2.75
2022-12-18T09:09:52.069Z,3.25
2022-12-18T09:12:19.474Z,3.00
2022-12-18T09:14:47.019Z,2.50
2022-12-18T09:17:14.439Z,3.00
2022-12-18T09:19:41.889Z,3.00
2022-12-18T09:22:10.957Z,3.00
2022-12-18T09:24:38.356Z,3.25
2022-12-18T09:27:05.758Z,3.00
2022-12-18T09:29:33.848Z,3.00
2022-12-18T09:32:01.257Z,2.00
2022-12-18T09:34:28.687Z,3.00
2022-12-18T09:36:56.073Z,1.00
2022-12-18T09:39:25.217Z,3.00
2022-12-18T09:41:54.685Z,2.00
2022-12-18T09:44:26.981Z,3.00
2022-12-18T09:47:01.548Z,3.00
2022-12-18T09:49:30.599Z,3.00
2022-12-18T09:51:59.469Z,3.00
2022-12-18T09:54:31.225Z,3.00
2022-12-18T09:56:58.611Z,2.00
2022-12-18T09:59:27.020Z,3.00
2022-12-18T10:01:54.539Z,3.00
2022-12-18T10:04:22.145Z,2.50
2022-12-18T10:06:53.395Z,2.25
2022-12-18T10:09:25.765Z,3.00
2022-12-18T10:11:57.175Z,3.25
2022-12-18T10:14:27.869Z,3.00
2022-12-18T10:16:59.442Z,2.50
2022-12-18T10:19:34.984Z,3.00
2022-12-18T10:22:04.927Z,3.00
2022-12-18T10:24:35.059Z,3.75
2022-12-18T10:27:10.758Z,4.00
2022-12-18T10:29:38.147Z,2.50
2022-12-18T10:32:05.575Z,4.25
2022-12-18T10:34:33.112Z,3.00
2022-12-18T10:37:01.833Z,2.50
2022-12-18T10:39:29.237Z,3.00
2022-12-18T10:42:10.820Z,4.00
2022-12-18T10:44:38.214Z,3.00
2022-12-18T10:47:11.652Z,4.00
2022-12-18T10:49:39.390Z,3.00
2022-12-18T10:52:19.690Z,4.00
2022-12-18T10:54:49.845Z,4.25
2022-12-18T10:57:21.911Z,3.25
2022-12-18T10:59:53.991Z,3.50
2022-12-18T11:02:28.346Z,3.75
2022-12-18T11:04:55.902Z,4.25
2022-12-18T11:07:23.296Z,8.00
2022-12-18T11:10:01.731Z,8.75
2022-12-18T11:12:30.888Z,9.00
2022-12-18T11:14:58.550Z,10.00
2022-12-18T11:17:29.879Z,9.25
2022-12-18T11:19:57.792Z,10.00
2022-12-18T11:22:27.254Z,11.00
2022-12-18T11:25:29.514Z,11.75
2022-12-18T11:27:49.361Z,9.50
2022-12-18T11:30:23.197Z,11.00
2022-12-18T11:32:51.024Z,4.50
2022-12-18T11:35:19.711Z,13.00
2022-12-18T11:37:50.247Z,13.25
2022-12-18T11:40:18.682Z,13.25
2022-12-18T11:42:50.183Z,12.25
2022-12-18T11:45:28.726Z,14.00
2022-12-18T11:47:59.049Z,10.75
2022-12-18T11:50:27.558Z,13.00
2022-12-18T11:52:58.321Z,13.50
2022-12-18T11:55:33.084Z,13.25
2022-12-18T11:58:04.989Z,10.75
2022-12-18T12:00:32.388Z,13.50
2022-12-18T12:03:35.232Z,13.25
2022-12-18T12:06:08.308Z,14.75
2022-12-18T12:08:42.468Z,12.25
2022-12-18T12:11:12.115Z,13.50
2022-12-18T12:13:46.018Z,13.25
2022-12-18T12:16:17.932Z,13.50
2022-12-18T12:18:53.390Z,11.00
2022-12-18T12:21:22.737Z,13.50
2022-12-18T12:23:52.877Z,13.00
2022-12-18T12:26:22.420Z,13.00
2022-12-18T12:29:03.780Z,13.00
2022-12-18T12:31:38.845Z,12.75
2022-12-18T12:34:10.574Z,12.25
2022-12-18T12:36:42.157Z,11.00
2022-12-18T12:39:10.879Z,11.25
2022-12-18T12:41:55.994Z,12.00
2022-12-18T12:44:27.240Z,12.50
2022-12-18T12:46:55.800Z,11.00
2022-12-18T12:49:24.668Z,9.25
2022-12-18T12:51:55.046Z,8.00
2022-12-18T12:54:25.321Z,12.00
2022-12-18T12:56:54.260Z,12.00
2022-12-18T12:59:27.092Z,11.75
2022-12-18T13:01:56.304Z,12.00
2022-12-18T13:04:27.601Z,10.25
2022-12-18T13:06:56.465Z,10.00
2022-12-18T13:09:23.857Z,12.00
2022-12-18T13:12:08.864Z,10.75
2022-12-18T13:14:38.433Z,10.25
2022-12-18T13:17:30.637Z,12.00
2022-12-18T13:20:06.638Z,9.00
2022-12-18T13:22:36.457Z,10.25
2022-12-18T13:25:03.938Z,10.00
2022-12-18T13:27:48.355Z,11.00
2022-12-18T13:30:50.180Z,10.00
2022-12-18T13:36:37.187Z,8.75
2022-12-18T13:39:12.695Z,10.00
2022-12-18T13:41:40.087Z,13.00
2022-12-18T13:44:12.995Z,11.00
2022-12-18T13:46:45.503Z,7.50
2022-12-18T13:49:25.838Z,10.00
2022-12-18T13:51:54.954Z,10.75
2022-12-18T13:54:25.608Z,11.50
2022-12-18T13:56:53.081Z,11.00
2022-12-18T13:59:22.248Z,12.00
2022-12-18T14:01:55.326Z,11.25
2022-12-18T14:04:25.464Z,12.00
2022-12-18T14:06:54.672Z,13.25
2022-12-18T14:09:26.857Z,13.75
2022-12-18T14:12:15.142Z,13.00
2022-12-18T14:14:44.624Z,12.00
2022-12-18T14:17:14.808Z,9.75
2022-12-18T14:19:44.566Z,13.25
2022-12-18T14:22:19.086Z,11.00
2022-12-18T14:24:46.553Z,12.75
2022-12-18T14:27:23.877Z,13.00
2022-12-18T14:29:51.450Z,12.50
2022-12-18T14:32:20.700Z,12.00
2022-12-18T14:34:48.649Z,13.00
2022-12-18T14:37:16.939Z,11.50
2022-12-18T14:39:54.490Z,12.00
2022-12-18T14:42:21.895Z,14.00
2022-12-18T14:47:37.998Z,11.75
2022-12-18T14:50:06.050Z,11.25
2022-12-18T14:52:33.678Z,10.50
2022-12-18T14:55:01.093Z,10.00
2022-12-18T14:57:30.998Z,11.75
2022-12-18T15:00:05.977Z,12.25
2022-12-18T15:02:33.698Z,11.50
2022-12-18T15:05:07.225Z,13.75
2022-12-18T15:07:42.534Z,12.50
2022-12-18T15:10:12.674Z,11.75
2022-12-18T15:12:41.740Z,11.25
2022-12-18T15:15:45.857Z,12.50
2022-12-18T15:18:14.778Z,2.25
2022-12-18T15:20:44.891Z,12.25
2022-12-18T15:23:16.373Z,9.75
2022-12-18T15:25:44.515Z,12.00
2022-12-18T15:28:19.952Z,11.25
2022-12-18T15:31:00.317Z,11.75
2022-12-18T15:33:28.544Z,12.00
2022-12-18T15:36:00.664Z,11.00
2022-12-18T15:38:28.090Z,12.00
2022-12-18T15:40:55.475Z,12.00
2022-12-18T15:43:45.984Z,13.00
2022-12-18T15:46:14.959Z,10.00
2022-12-18T15:48:43.308Z,11.00
2022-12-18T15:51:14.743Z,13.00
2022-12-18T15:53:42.524Z,12.25
2022-12-18T15:56:29.009Z,11.00
2022-12-18T15:58:57.568Z,9.25
2022-12-18T16:01:25.508Z,10.75
2022-12-18T16:03:53.123Z,11.50
2022-12-18T16:06:21.868Z,11.00
2022-12-18T16:08:49.301Z,10.50
2022-12-18T16:11:38.599Z,11.00
2022-12-18T16:14:11.339Z,11.50
2022-12-18T16:16:39.729Z,9.00
2022-12-18T16:19:07.133Z,9.75
2022-12-18T16:21:36.220Z,11.00
2022-12-18T16:24:03.694Z,10.00
2022-12-18T16:26:34.326Z,10.50
2022-12-18T16:29:01.714Z,11.00
2022-12-18T16:31:29.230Z,11.25
2022-12-18T16:34:11.896Z,10.00
2022-12-18T16:36:41.013Z,7.25
2022-12-18T16:39:09.375Z,11.25
2022-12-18T16:41:36.813Z,10.50
2022-12-18T16:44:05.448Z,10.50
2022-12-18T16:46:32.915Z,10.00
2022-12-18T16:49:00.500Z,10.00
2022-12-18T16:51:27.975Z,10.00
2022-12-18T16:53:56.781Z,10.00
2022-12-18T16:56:24.194Z,10.50
2022-12-18T16:58:52.550Z,10.50
2022-12-18T17:01:20.045Z,11.00
2022-12-18T17:03:54.803Z,10.50
2022-12-18T17:06:22.259Z,9.25
2022-12-18T17:08:49.679Z,10.00
2022-12-18T17:11:18.409Z,10.75
2022-12-18T17:13:45.996Z,10.50
2022-12-18T17:16:13.460Z,10.50
2022-12-18T17:18:40.898Z,11.00
2022-12-18T17:21:09.497Z,3.00
2022-12-18T17:23:37.235Z,11.00
2022-12-18T17:26:07.122Z,9.00
2022-12-18T17:28:35.885Z,10.75
2022-12-18T17:31:03.336Z,10.00
2022-12-18T17:33:30.772Z,11.75
2022-12-18T17:35:59.475Z,11.50
2022-12-18T17:38:27.587Z,12.00
2022-12-18T17:40:54.990Z,10.50
2022-12-18T17:43:22.412Z,11.50
2022-12-18T17:45:51.724Z,12.00
2022-12-18T17:48:19.132Z,10.00
2022-12-18T17:50:47.005Z,11.25
2022-12-18T17:53:14.431Z,11.50
2022-12-18T17:55:41.924Z,11.00
2022-12-18T17:58:09.462Z,11.00
2022-12-18T18:00:36.883Z,9.50
2022-12-18T18:03:05.712Z,11.75
2022-12-18T18:05:33.152Z,10.50
2022-12-18T18:08:00.548Z,9.50
2022-12-18T18:10:27.953Z,10.50
2022-12-18T18:13:13.315Z,11.50
2022-12-18T18:15:41.486Z,11.00
2022-12-18T18:18:10.189Z,12.00
2022-12-18T18:20:40.545Z,12.00
2022-12-18T18:23:07.964Z,11.00
2022-12-18T18:25:36.966Z,10.00
2022-12-18T18:28:05.023Z,11.00
2022-12-18T18:30:32.524Z,11.00
2022-12-18T18:32:59.942Z,11.00
2022-12-18T18:35:52.848Z,9.00
2022-12-18T18:38:16.184Z,10.25
2022-12-18T18:40:43.582Z,11.75
2022-12-18T18:43:10.988Z,8.75
2022-12-18T18:45:38.407Z,10.25
2022-12-18T18:48:07.538Z,10.75
2022-12-18T18:50:36.839Z,10.50
2022-12-18T18:53:04.252Z,11.00
2022-12-18T18:55:33.897Z,10.25
2022-12-18T18:58:01.418Z,9.50
2022-12-18T19:00:30.960Z,9.50
2022-12-18T19:03:00.771Z,11.00
2022-12-18T19:05:31.933Z,9.50
2022-12-18T19:08:00.650Z,10.25
2022-12-18T19:10:29.305Z,10.25
2022-12-18T19:13:14.937Z,9.00
2022-12-18T19:15:42.337Z,10.50
2022-12-18T19:18:09.849Z,10.75
2022-12-18T19:20:37.459Z,11.00
2022-12-18T19:23:06.161Z,11.75
2022-12-18T19:25:38.665Z,11.75
2022-12-18T19:28:21.668Z,12.00
2022-12-18T19:30:59.058Z,11.00
2022-12-18T19:33:42.336Z,10.25
2022-12-18T19:36:12.800Z,11.00
2022-12-18T19:38:43.697Z,10.00
2022-12-18T19:41:13.096Z,13.00
2022-12-18T19:43:41.381Z,17.50
2022-12-18T19:46:09.148Z,18.50
2022-12-18T19:48:36.627Z,22.00
2022-12-18T19:51:06.561Z,16.00
2022-12-18T19:53:33.984Z,18.50
2022-12-18T19:56:07.095Z,21.50
2022-12-18T19:58:34.592Z,20.25
2022-12-18T20:01:02.059Z,21.25
2022-12-18T20:03:42.747Z,12.00
2022-12-18T20:06:12.076Z,21.50
2022-12-18T20:08:39.484Z,21.75
2022-12-18T20:11:08.174Z,22.00
2022-12-18T20:13:36.243Z,22.00
2022-12-18T20:16:03.644Z,22.25
2022-12-18T20:18:31.115Z,22.25
2022-12-18T20:20:58.826Z,22.25
2022-12-18T20:23:28.318Z,20.00
2022-12-18T20:25:55.832Z,19.25
2022-12-18T20:28:24.766Z,22.25
2022-12-18T20:30:52.163Z,21.75
2022-12-18T20:33:19.721Z,22.25
2022-12-18T20:35:47.145Z,22.25
2022-12-18T20:38:14.859Z,22.25
2022-12-18T20:40:43.675Z,21.50
2022-12-18T20:43:16.834Z,21.25
2022-12-18T20:45:46.082Z,22.25
2022-12-18T20:48:14.451Z,21.75
2022-12-18T20:50:43.256Z,22.25
2022-12-18T20:53:10.659Z,20.75
2022-12-18T20:55:42.230Z,22.25
2022-12-18T20:58:09.631Z,22.00
2022-12-18T21:00:37.429Z,22.25
2022-12-18T21:03:06.225Z,22.25
2022-12-18T21:05:33.713Z,21.00
2022-12-18T21:08:02.027Z,20.25
2022-12-18T21:10:29.433Z,20.25
2022-12-18T21:13:01.717Z,21.50
2022-12-18T21:15:33.503Z,20.25
2022-12-18T21:18:00.966Z,20.75
2022-12-18T21:20:29.826Z,21.25
2022-12-18T21:22:57.692Z,22.25
2022-12-18T21:25:30.970Z,21.00
2022-12-18T21:28:01.628Z,20.25
2022-12-18T21:30:29.039Z,20.50
2022-12-18T21:32:56.683Z,20.50
2022-12-18T21:35:24.533Z,21.50
2022-12-18T21:37:55.603Z,19.50
2022-12-18T21:40:23.013Z,20.25
2022-12-18T21:43:08.474Z,20.50
2022-12-18T21:45:35.870Z,20.25
2022-12-18T21:48:03.590Z,20.25
2022-12-18T21:50:31.014Z,21.50
2022-12-18T21:52:59.853Z,20.25
2022-12-18T21:55:27.252Z,16.25
2022-12-18T21:57:55.356Z,20.00
2022-12-18T22:00:22.800Z,20.50
2022-12-18T22:03:16.910Z,20.25
2022-12-18T22:05:37.610Z,20.25
2022-12-18T22:08:06.726Z,19.25
2022-12-18T22:10:34.450Z,20.25
2022-12-18T22:13:26.865Z,18.50
2022-12-18T22:15:54.343Z,21.00
2022-12-18T22:18:22.741Z,20.00
2022-12-18T22:20:50.169Z,21.25
2022-12-18T22:23:18.847Z,19.75
2022-12-18T22:25:46.260Z,20.25
2022-12-18T22:28:31.357Z,18.50
2022-12-18T22:30:59.635Z,19.00
2022-12-18T22:33:27.782Z,19.75
2022-12-18T22:35:55.187Z,18.00
2022-12-18T22:38:24.044Z,20.00
2022-12-18T22:40:51.439Z,16.75
2022-12-18T22:43:18.925Z,18.00
2022-12-18T22:45:47.279Z,18.00
2022-12-18T22:48:14.824Z,19.00
2022-12-18T22:50:43.872Z,18.25
2022-12-18T22:53:11.283Z,18.00
2022-12-18T22:55:40.125Z,18.25
2022-12-18T22:58:07.541Z,17.00
2022-12-18T23:00:34.964Z,16.25
2022-12-18T23:03:02.478Z,17.75
2022-12-18T23:05:30.817Z,17.75
2022-12-18T23:07:58.316Z,16.75
2022-12-18T23:10:26.560Z,18.75
2022-12-18T23:12:55.244Z,17.25
2022-12-18T23:15:27.641Z,19.00
2022-12-18T23:17:57.046Z,19.00
2022-12-18T23:20:24.538Z,18.00
2022-12-18T23:22:51.960Z,18.50
2022-12-18T23:25:20.005Z,19.25
2022-12-18T23:27:47.406Z,19.25
2022-12-18T23:30:16.343Z,17.25
2022-12-18T23:32:43.727Z,17.50
2022-12-18T23:35:11.370Z,17.00
2022-12-18T23:37:58.889Z,17.25
2022-12-18T23:40:26.995Z,16.25
2022-12-18T23:42:54.416Z,15.75
2022-12-18T23:45:23.106Z,17.75
2022-12-18T23:47:51.353Z,16.50
2022-12-18T23:50:18.928Z,15.00
2022-12-18T23:52:49.564Z,15.25
2022-12-18T23:55:17.109Z,16.25
2022-12-18T23:57:44.554Z,13.50
